sensor_id;sensor_type;location;lat;lon;timestamp;P1;durP1;ratioP1;P2;durP2;ratioP2
57155;SDS011;43023;59.928;10.682;2023-03-14T00:01:10;1.85;;;0.77;;
57155;SDS011;43023;59.928;10.682;2023-03-14T00:03:36;1.05;;;0.40;;
57155;SDS011;43023;59.928;10.682;2023-03-14T00:06:03;2.42;;;0.95;;
57155;SDS011;43023;59.928;10.682;2023-03-14T00:08:29;0.70;;;0.70;;
57155;SDS011;43023;59.928;10.682;2023-03-14T00:10:55;2.63;;;0.70;;
57155;SDS011;43023;59.928;10.682;2023-03-14T00:13:23;0.70;;;0.60;;
57155;SDS011;43023;59.928;10.682;2023-03-14T00:15:49;2.00;;;0.73;;
57155;SDS011;43023;59.928;10.682;2023-03-14T00:18:15;2.60;;;0.73;;
57155;SDS011;43023;59.928;10.682;2023-03-14T00:20:41;1.50;;;0.60;;
57155;SDS011;43023;59.928;10.682;2023-03-14T00:23:07;0.90;;;0.55;;
57155;SDS011;43023;59.928;10.682;2023-03-14T00:25:35;1.20;;;0.65;;
57155;SDS011;43023;59.928;10.682;2023-03-14T00:28:01;0.80;;;0.52;;
57155;SDS011;43023;59.928;10.682;2023-03-14T00:30:27;0.95;;;0.50;;
57155;SDS011;43023;59.928;10.682;2023-03-14T00:32:53;0.43;;;0.38;;
57155;SDS011;43023;59.928;10.682;2023-03-14T00:35:19;0.95;;;0.73;;
57155;SDS011;43023;59.928;10.682;2023-03-14T00:37:45;1.38;;;0.70;;
57155;SDS011;43023;59.928;10.682;2023-03-14T00:40:11;2.13;;;0.40;;
57155;SDS011;43023;59.928;10.682;2023-03-14T00:42:37;0.93;;;0.63;;
57155;SDS011;43023;59.928;10.682;2023-03-14T00:45:03;0.28;;;0.28;;
57155;SDS011;43023;59.928;10.682;2023-03-14T00:47:29;1.30;;;0.45;;
57155;SDS011;43023;59.928;10.682;2023-03-14T00:49:56;0.75;;;0.60;;
57155;SDS011;43023;59.928;10.682;2023-03-14T00:52:22;0.65;;;0.45;;
57155;SDS011;43023;59.928;10.682;2023-03-14T00:54:48;1.70;;;0.75;;
57155;SDS011;43023;59.928;10.682;2023-03-14T00:57:14;0.40;;;0.40;;
57155;SDS011;43023;59.928;10.682;2023-03-14T00:59:40;2.38;;;0.77;;
57155;SDS011;43023;59.928;10.682;2023-03-14T01:02:06;1.08;;;0.70;;
57155;SDS011;43023;59.928;10.682;2023-03-14T01:04:32;1.67;;;0.60;;
57155;SDS011;43023;59.928;10.682;2023-03-14T01:06:59;0.47;;;0.43;;
57155;SDS011;43023;59.928;10.682;2023-03-14T01:09:25;1.02;;;0.50;;
57155;SDS011;43023;59.928;10.682;2023-03-14T01:11:51;0.40;;;0.30;;
57155;SDS011;43023;59.928;10.682;2023-03-14T01:14:17;0.50;;;0.50;;
57155;SDS011;43023;59.928;10.682;2023-03-14T01:16:44;2.50;;;0.75;;
57155;SDS011;43023;59.928;10.682;2023-03-14T01:19:10;0.95;;;0.57;;
57155;SDS011;43023;59.928;10.682;2023-03-14T01:21:36;0.80;;;0.43;;
57155;SDS011;43023;59.928;10.682;2023-03-14T01:24:03;0.40;;;0.40;;
57155;SDS011;43023;59.928;10.682;2023-03-14T01:26:30;0.40;;;0.28;;
57155;SDS011;43023;59.928;10.682;2023-03-14T01:28:57;1.17;;;0.38;;
57155;SDS011;43023;59.928;10.682;2023-03-14T01:31:23;0.43;;;0.25;;
57155;SDS011;43023;59.928;10.682;2023-03-14T01:33:51;0.45;;;0.45;;
57155;SDS011;43023;59.928;10.682;2023-03-14T01:36:18;0.55;;;0.40;;
57155;SDS011;43023;59.928;10.682;2023-03-14T01:38:44;1.33;;;0.38;;
57155;SDS011;43023;59.928;10.682;2023-03-14T01:41:14;0.40;;;0.40;;
57155;SDS011;43023;59.928;10.682;2023-03-14T01:43:40;0.68;;;0.60;;
57155;SDS011;43023;59.928;10.682;2023-03-14T01:51:19;0.40;;;0.30;;
57155;SDS011;43023;59.928;10.682;2023-03-14T01:53:47;0.65;;;0.63;;
57155;SDS011;43023;59.928;10.682;2023-03-14T01:56:15;0.65;;;0.30;;
57155;SDS011;43023;59.928;10.682;2023-03-14T01:58:44;0.95;;;0.35;;
57155;SDS011;43023;59.928;10.682;2023-03-14T02:01:12;0.50;;;0.50;;
57155;SDS011;43023;59.928;10.682;2023-03-14T02:03:44;0.30;;;0.30;;
57155;SDS011;43023;59.928;10.682;2023-03-14T02:06:10;0.98;;;0.75;;
57155;SDS011;43023;59.928;10.682;2023-03-14T02:08:37;0.60;;;0.50;;
57155;SDS011;43023;59.928;10.682;2023-03-14T02:11:03;0.73;;;0.55;;
57155;SDS011;43023;59.928;10.682;2023-03-14T02:13:29;2.33;;;0.50;;
57155;SDS011;43023;59.928;10.682;2023-03-14T02:15:55;0.63;;;0.35;;
57155;SDS011;43023;59.928;10.682;2023-03-14T02:18:21;0.43;;;0.30;;
57155;SDS011;43023;59.928;10.682;2023-03-14T02:23:20;0.80;;;0.60;;
57155;SDS011;43023;59.928;10.682;2023-03-14T02:25:54;0.73;;;0.40;;
57155;SDS011;43023;59.928;10.682;2023-03-14T02:28:24;0.40;;;0.40;;
57155;SDS011;43023;59.928;10.682;2023-03-14T02:30:50;1.10;;;0.50;;
57155;SDS011;43023;59.928;10.682;2023-03-14T02:33:17;0.95;;;0.40;;
57155;SDS011;43023;59.928;10.682;2023-03-14T02:35:44;0.25;;;0.25;;
57155;SDS011;43023;59.928;10.682;2023-03-14T02:38:19;0.73;;;0.20;;
57155;SDS011;43023;59.928;10.682;2023-03-14T02:40:47;0.80;;;0.50;;
57155;SDS011;43023;59.928;10.682;2023-03-14T02:43:13;0.75;;;0.50;;
57155;SDS011;43023;59.928;10.682;2023-03-14T02:45:41;0.38;;;0.38;;
57155;SDS011;43023;59.928;10.682;2023-03-14T02:48:13;0.98;;;0.30;;
57155;SDS011;43023;59.928;10.682;2023-03-14T02:50:40;0.32;;;0.30;;
57155;SDS011;43023;59.928;10.682;2023-03-14T02:53:06;0.30;;;0.22;;
57155;SDS011;43023;59.928;10.682;2023-03-14T02:55:32;1.23;;;0.50;;
57155;SDS011;43023;59.928;10.682;2023-03-14T02:57:58;0.20;;;0.20;;
57155;SDS011;43023;59.928;10.682;2023-03-14T03:00:25;0.65;;;0.30;;
57155;SDS011;43023;59.928;10.682;2023-03-14T03:02:51;0.45;;;0.20;;
57155;SDS011;43023;59.928;10.682;2023-03-14T03:05:17;0.30;;;0.20;;
57155;SDS011;43023;59.928;10.682;2023-03-14T03:07:43;0.30;;;0.30;;
57155;SDS011;43023;59.928;10.682;2023-03-14T03:10:09;1.27;;;0.40;;
57155;SDS011;43023;59.928;10.682;2023-03-14T03:12:36;0.20;;;0.20;;
57155;SDS011;43023;59.928;10.682;2023-03-14T03:15:02;0.20;;;0.20;;
57155;SDS011;43023;59.928;10.682;2023-03-14T03:17:28;0.47;;;0.30;;
57155;SDS011;43023;59.928;10.682;2023-03-14T03:19:54;0.20;;;0.20;;
57155;SDS011;43023;59.928;10.682;2023-03-14T03:22:20;0.10;;;0.10;;
57155;SDS011;43023;59.928;10.682;2023-03-14T03:24:46;0.30;;;0.30;;
57155;SDS011;43023;59.928;10.682;2023-03-14T03:27:12;0.28;;;0.28;;
57155;SDS011;43023;59.928;10.682;2023-03-14T03:29:38;0.20;;;0.20;;
57155;SDS011;43023;59.928;10.682;2023-03-14T03:32:04;0.50;;;0.40;;
57155;SDS011;43023;59.928;10.682;2023-03-14T03:34:30;0.13;;;0.13;;
57155;SDS011;43023;59.928;10.682;2023-03-14T03:36:56;0.10;;;0.10;;
57155;SDS011;43023;59.928;10.682;2023-03-14T03:39:23;0.20;;;0.20;;
57155;SDS011;43023;59.928;10.682;2023-03-14T03:41:49;0.52;;;0.25;;
57155;SDS011;43023;59.928;10.682;2023-03-14T03:44:15;0.25;;;0.20;;
57155;SDS011;43023;59.928;10.682;2023-03-14T03:46:41;0.65;;;0.40;;
57155;SDS011;43023;59.928;10.682;2023-03-14T03:49:08;0.10;;;0.10;;
57155;SDS011;43023;59.928;10.682;2023-03-14T03:51:34;0.10;;;0.10;;
57155;SDS011;43023;59.928;10.682;2023-03-14T03:54:00;0.47;;;0.30;;
57155;SDS011;43023;59.928;10.682;2023-03-14T03:56:26;0.28;;;0.28;;
57155;SDS011;43023;59.928;10.682;2023-03-14T03:58:52;0.68;;;0.30;;
57155;SDS011;43023;59.928;10.682;2023-03-14T04:01:18;0.52;;;0.15;;
57155;SDS011;43023;59.928;10.682;2023-03-14T04:03:44;0.32;;;0.32;;
57155;SDS011;43023;59.928;10.682;2023-03-14T04:06:11;0.15;;;0.10;;
57155;SDS011;43023;59.928;10.682;2023-03-14T04:08:38;0.90;;;0.30;;
57155;SDS011;43023;59.928;10.682;2023-03-14T04:11:05;0.10;;;0.10;;
57155;SDS011;43023;59.928;10.682;2023-03-14T04:13:32;1.15;;;0.57;;
57155;SDS011;43023;59.928;10.682;2023-03-14T04:15:58;0.22;;;0.22;;
57155;SDS011;43023;59.928;10.682;2023-03-14T04:18:24;0.10;;;0.10;;
57155;SDS011;43023;59.928;10.682;2023-03-14T04:20:51;0.20;;;0.10;;
57155;SDS011;43023;59.928;10.682;2023-03-14T04:23:17;0.55;;;0.20;;
57155;SDS011;43023;59.928;10.682;2023-03-14T04:25:44;0.10;;;0.10;;
57155;SDS011;43023;59.928;10.682;2023-03-14T04:28:10;0.20;;;0.20;;
57155;SDS011;43023;59.928;10.682;2023-03-14T04:30:36;0.10;;;0.10;;
57155;SDS011;43023;59.928;10.682;2023-03-14T04:33:02;0.17;;;0.17;;
57155;SDS011;43023;59.928;10.682;2023-03-14T04:35:30;0.10;;;0.10;;
57155;SDS011;43023;59.928;10.682;2023-03-14T04:37:56;0.57;;;0.25;;
57155;SDS011;43023;59.928;10.682;2023-03-14T04:40:22;0.00;;;0.00;;
57155;SDS011;43023;59.928;10.682;2023-03-14T04:42:48;0.10;;;0.10;;
57155;SDS011;43023;59.928;10.682;2023-03-14T04:45:14;0.47;;;0.22;;
57155;SDS011;43023;59.928;10.682;2023-03-14T04:47:40;0.10;;;0.10;;
57155;SDS011;43023;59.928;10.682;2023-03-14T04:50:07;0.10;;;0.10;;
57155;SDS011;43023;59.928;10.682;2023-03-14T04:52:33;0.20;;;0.10;;
57155;SDS011;43023;59.928;10.682;2023-03-14T04:54:59;0.30;;;0.20;;
57155;SDS011;43023;59.928;10.682;2023-03-14T04:57:25;0.10;;;0.10;;
57155;SDS011;43023;59.928;10.682;2023-03-14T04:59:51;0.32;;;0.10;;
57155;SDS011;43023;59.928;10.682;2023-03-14T05:02:17;1.67;;;0.20;;
57155;SDS011;43023;59.928;10.682;2023-03-14T05:04:44;1.98;;;0.20;;
57155;SDS011;43023;59.928;10.682;2023-03-14T05:07:10;0.10;;;0.10;;
57155;SDS011;43023;59.928;10.682;2023-03-14T05:09:36;0.10;;;0.10;;
57155;SDS011;43023;59.928;10.682;2023-03-14T05:12:02;0.75;;;0.10;;
57155;SDS011;43023;59.928;10.682;2023-03-14T05:14:28;0.50;;;0.20;;
57155;SDS011;43023;59.928;10.682;2023-03-14T05:16:54;0.13;;;0.10;;
57155;SDS011;43023;59.928;10.682;2023-03-14T05:19:20;0.10;;;0.08;;
57155;SDS011;43023;59.928;10.682;2023-03-14T05:21:46;0.57;;;0.43;;
57155;SDS011;43023;59.928;10.682;2023-03-14T05:24:12;0.20;;;0.20;;
57155;SDS011;43023;59.928;10.682;2023-03-14T05:26:39;0.10;;;0.10;;
57155;SDS011;43023;59.928;10.682;2023-03-14T05:29:05;0.10;;;0.10;;
57155;SDS011;43023;59.928;10.682;2023-03-14T05:31:31;0.28;;;0.25;;
57155;SDS011;43023;59.928;10.682;2023-03-14T05:33:57;0.10;;;0.10;;
57155;SDS011;43023;59.928;10.682;2023-03-14T05:36:23;0.70;;;0.20;;
57155;SDS011;43023;59.928;10.682;2023-03-14T05:38:49;0.20;;;0.10;;
57155;SDS011;43023;59.928;10.682;2023-03-14T05:41:15;0.10;;;0.10;;
57155;SDS011;43023;59.928;10.682;2023-03-14T05:43:41;0.20;;;0.20;;
57155;SDS011;43023;59.928;10.682;2023-03-14T05:46:07;0.60;;;0.15;;
57155;SDS011;43023;59.928;10.682;2023-03-14T05:48:33;0.13;;;0.13;;
57155;SDS011;43023;59.928;10.682;2023-03-14T05:50:59;0.13;;;0.13;;
57155;SDS011;43023;59.928;10.682;2023-03-14T05:53:26;0.75;;;0.38;;
57155;SDS011;43023;59.928;10.682;2023-03-14T05:55:54;1.77;;;0.20;;
57155;SDS011;43023;59.928;10.682;2023-03-14T05:58:20;1.02;;;0.30;;
57155;SDS011;43023;59.928;10.682;2023-03-14T06:00:47;1.17;;;0.20;;
57155;SDS011;43023;59.928;10.682;2023-03-14T06:03:13;0.65;;;0.20;;
57155;SDS011;43023;59.928;10.682;2023-03-14T06:05:39;2.00;;;0.32;;
57155;SDS011;43023;59.928;10.682;2023-03-14T06:08:05;0.15;;;0.13;;
57155;SDS011;43023;59.928;10.682;2023-03-14T06:10:31;1.00;;;0.40;;
57155;SDS011;43023;59.928;10.682;2023-03-14T06:12:57;0.65;;;0.17;;
57155;SDS011;43023;59.928;10.682;2023-03-14T06:15:23;0.20;;;0.20;;
57155;SDS011;43023;59.928;10.682;2023-03-14T06:17:49;1.10;;;0.22;;
57155;SDS011;43023;59.928;10.682;2023-03-14T06:20:16;1.15;;;0.38;;
57155;SDS011;43023;59.928;10.682;2023-03-14T06:22:42;1.25;;;0.20;;
57155;SDS011;43023;59.928;10.682;2023-03-14T06:25:08;0.88;;;0.30;;
57155;SDS011;43023;59.928;10.682;2023-03-14T06:27:34;0.73;;;0.50;;
57155;SDS011;43023;59.928;10.682;2023-03-14T06:30:00;1.35;;;0.43;;
57155;SDS011;43023;59.928;10.682;2023-03-14T06:32:26;0.22;;;0.22;;
57155;SDS011;43023;59.928;10.682;2023-03-14T06:34:53;1.40;;;0.40;;
57155;SDS011;43023;59.928;10.682;2023-03-14T06:37:19;1.83;;;0.32;;
57155;SDS011;43023;59.928;10.682;2023-03-14T06:39:45;1.60;;;0.65;;
57155;SDS011;43023;59.928;10.682;2023-03-14T06:42:11;0.75;;;0.50;;
57155;SDS011;43023;59.928;10.682;2023-03-14T06:44:37;1.00;;;0.50;;
57155;SDS011;43023;59.928;10.682;2023-03-14T06:47:03;1.27;;;0.65;;
57155;SDS011;43023;59.928;10.682;2023-03-14T06:49:29;3.08;;;0.70;;
57155;SDS011;43023;59.928;10.682;2023-03-14T06:51:55;2.38;;;0.73;;
57155;SDS011;43023;59.928;10.682;2023-03-14T06:54:21;2.88;;;0.80;;
57155;SDS011;43023;59.928;10.682;2023-03-14T06:56:47;1.80;;;0.73;;
57155;SDS011;43023;59.928;10.682;2023-03-14T06:59:14;1.00;;;0.63;;
57155;SDS011;43023;59.928;10.682;2023-03-14T07:01:40;2.88;;;0.68;;
57155;SDS011;43023;59.928;10.682;2023-03-14T07:04:06;1.58;;;0.60;;
57155;SDS011;43023;59.928;10.682;2023-03-14T07:06:33;1.63;;;0.93;;
57155;SDS011;43023;59.928;10.682;2023-03-14T07:08:59;2.05;;;0.93;;
57155;SDS011;43023;59.928;10.682;2023-03-14T07:11:25;1.80;;;0.75;;
57155;SDS011;43023;59.928;10.682;2023-03-14T07:13:52;2.10;;;0.90;;
57155;SDS011;43023;59.928;10.682;2023-03-14T07:16:18;5.88;;;1.15;;
57155;SDS011;43023;59.928;10.682;2023-03-14T07:18:45;3.50;;;0.88;;
57155;SDS011;43023;59.928;10.682;2023-03-14T07:21:11;1.77;;;1.00;;
57155;SDS011;43023;59.928;10.682;2023-03-14T07:23:37;1.95;;;1.00;;
57155;SDS011;43023;59.928;10.682;2023-03-14T07:26:04;2.67;;;0.82;;
57155;SDS011;43023;59.928;10.682;2023-03-14T07:28:30;4.22;;;0.93;;
57155;SDS011;43023;59.928;10.682;2023-03-14T07:30:56;2.35;;;0.82;;
57155;SDS011;43023;59.928;10.682;2023-03-14T07:33:22;1.52;;;0.70;;
57155;SDS011;43023;59.928;10.682;2023-03-14T07:35:48;3.00;;;1.25;;
57155;SDS011;43023;59.928;10.682;2023-03-14T07:38:15;3.80;;;0.90;;
57155;SDS011;43023;59.928;10.682;2023-03-14T07:40:41;2.03;;;1.10;;
57155;SDS011;43023;59.928;10.682;2023-03-14T07:43:08;1.80;;;0.93;;
57155;SDS011;43023;59.928;10.682;2023-03-14T07:45:34;2.63;;;0.85;;
57155;SDS011;43023;59.928;10.682;2023-03-14T07:48:00;0.90;;;0.50;;
57155;SDS011;43023;59.928;10.682;2023-03-14T07:50:27;1.50;;;0.80;;
57155;SDS011;43023;59.928;10.682;2023-03-14T07:52:53;1.50;;;0.73;;
57155;SDS011;43023;59.928;10.682;2023-03-14T07:55:20;4.55;;;1.17;;
57155;SDS011;43023;59.928;10.682;2023-03-14T07:57:46;2.35;;;1.00;;
57155;SDS011;43023;59.928;10.682;2023-03-14T08:00:12;1.85;;;1.05;;
57155;SDS011;43023;59.928;10.682;2023-03-14T08:02:41;3.63;;;0.93;;
57155;SDS011;43023;59.928;10.682;2023-03-14T08:05:08;2.05;;;1.00;;
57155;SDS011;43023;59.928;10.682;2023-03-14T08:07:35;1.13;;;0.80;;
57155;SDS011;43023;59.928;10.682;2023-03-14T08:10:01;1.55;;;0.88;;
57155;SDS011;43023;59.928;10.682;2023-03-14T08:12:27;2.65;;;0.65;;
57155;SDS011;43023;59.928;10.682;2023-03-14T08:14:53;1.40;;;0.80;;
57155;SDS011;43023;59.928;10.682;2023-03-14T08:17:19;1.98;;;0.85;;
57155;SDS011;43023;59.928;10.682;2023-03-14T08:19:45;3.63;;;1.05;;
57155;SDS011;43023;59.928;10.682;2023-03-14T08:22:12;1.75;;;0.90;;
57155;SDS011;43023;59.928;10.682;2023-03-14T08:24:38;2.92;;;0.75;;
57155;SDS011;43023;59.928;10.682;2023-03-14T08:27:04;2.97;;;0.88;;
57155;SDS011;43023;59.928;10.682;2023-03-14T08:29:30;1.63;;;0.60;;
57155;SDS011;43023;59.928;10.682;2023-03-14T08:31:56;1.65;;;0.80;;
57155;SDS011;43023;59.928;10.682;2023-03-14T08:34:22;2.92;;;0.90;;
57155;SDS011;43023;59.928;10.682;2023-03-14T08:36:48;1.88;;;0.93;;
57155;SDS011;43023;59.928;10.682;2023-03-14T08:39:15;1.90;;;0.98;;
57155;SDS011;43023;59.928;10.682;2023-03-14T08:41:41;2.05;;;0.90;;
57155;SDS011;43023;59.928;10.682;2023-03-14T08:44:09;1.13;;;0.88;;
57155;SDS011;43023;59.928;10.682;2023-03-14T08:46:39;3.60;;;0.93;;
57155;SDS011;43023;59.928;10.682;2023-03-14T08:49:05;2.92;;;0.85;;
57155;SDS011;43023;59.928;10.682;2023-03-14T08:51:31;2.25;;;0.85;;
57155;SDS011;43023;59.928;10.682;2023-03-14T08:53:57;2.15;;;0.98;;
57155;SDS011;43023;59.928;10.682;2023-03-14T08:56:23;2.20;;;0.90;;
57155;SDS011;43023;59.928;10.682;2023-03-14T08:58:49;1.05;;;0.80;;
57155;SDS011;43023;59.928;10.682;2023-03-14T09:01:15;2.05;;;0.75;;
57155;SDS011;43023;59.928;10.682;2023-03-14T09:03:43;2.13;;;0.95;;
57155;SDS011;43023;59.928;10.682;2023-03-14T09:06:10;0.82;;;0.60;;
57155;SDS011;43023;59.928;10.682;2023-03-14T09:08:36;1.15;;;0.70;;
57155;SDS011;43023;59.928;10.682;2023-03-14T09:11:02;1.52;;;0.70;;
57155;SDS011;43023;59.928;10.682;2023-03-14T09:13:29;3.38;;;1.25;;
57155;SDS011;43023;59.928;10.682;2023-03-14T09:15:55;2.10;;;0.77;;
57155;SDS011;43023;59.928;10.682;2023-03-14T09:18:22;1.75;;;0.95;;
57155;SDS011;43023;59.928;10.682;2023-03-14T09:20:48;1.25;;;0.68;;
57155;SDS011;43023;59.928;10.682;2023-03-14T09:23:15;2.13;;;1.00;;
57155;SDS011;43023;59.928;10.682;2023-03-14T09:25:41;1.85;;;0.80;;
57155;SDS011;43023;59.928;10.682;2023-03-14T09:28:07;3.28;;;1.45;;
57155;SDS011;43023;59.928;10.682;2023-03-14T09:30:33;1.10;;;0.70;;
57155;SDS011;43023;59.928;10.682;2023-03-14T09:32:59;1.60;;;0.60;;
57155;SDS011;43023;59.928;10.682;2023-03-14T09:35:26;1.88;;;0.73;;
57155;SDS011;43023;59.928;10.682;2023-03-14T09:37:52;0.68;;;0.65;;
57155;SDS011;43023;59.928;10.682;2023-03-14T09:40:19;1.10;;;0.80;;
57155;SDS011;43023;59.928;10.682;2023-03-14T09:42:48;0.73;;;0.50;;
57155;SDS011;43023;59.928;10.682;2023-03-14T09:45:29;1.20;;;0.70;;
57155;SDS011;43023;59.928;10.682;2023-03-14T09:47:57;1.23;;;0.95;;
57155;SDS011;43023;59.928;10.682;2023-03-14T09:50:23;1.70;;;0.55;;
57155;SDS011;43023;59.928;10.682;2023-03-14T09:53:02;2.88;;;1.15;;
57155;SDS011;43023;59.928;10.682;2023-03-14T09:55:28;2.28;;;0.57;;
57155;SDS011;43023;59.928;10.682;2023-03-14T09:57:56;2.17;;;0.80;;
57155;SDS011;43023;59.928;10.682;2023-03-14T10:00:25;0.80;;;0.60;;
57155;SDS011;43023;59.928;10.682;2023-03-14T10:02:56;0.40;;;0.40;;
57155;SDS011;43023;59.928;10.682;2023-03-14T10:05:23;0.50;;;0.50;;
57155;SDS011;43023;59.928;10.682;2023-03-14T10:07:49;1.38;;;0.47;;
57155;SDS011;43023;59.928;10.682;2023-03-14T10:12:44;2.65;;;0.70;;
57155;SDS011;43023;59.928;10.682;2023-03-14T10:15:11;1.00;;;0.70;;
57155;SDS011;43023;59.928;10.682;2023-03-14T10:17:43;1.40;;;0.88;;
57155;SDS011;43023;59.928;10.682;2023-03-14T10:21:01;0.65;;;0.50;;
57155;SDS011;43023;59.928;10.682;2023-03-14T10:25:31;1.05;;;0.60;;
57155;SDS011;43023;59.928;10.682;2023-03-14T10:27:58;1.20;;;0.47;;
57155;SDS011;43023;59.928;10.682;2023-03-14T10:30:29;1.05;;;0.75;;
57155;SDS011;43023;59.928;10.682;2023-03-14T10:32:56;0.70;;;0.50;;
57155;SDS011;43023;59.928;10.682;2023-03-14T10:35:22;1.15;;;0.57;;
57155;SDS011;43023;59.928;10.682;2023-03-14T10:37:59;1.42;;;0.65;;
57155;SDS011;43023;59.928;10.682;2023-03-14T10:40:37;1.85;;;0.70;;
57155;SDS011;43023;59.928;10.682;2023-03-14T10:43:05;1.08;;;0.50;;
57155;SDS011;43023;59.928;10.682;2023-03-14T10:45:43;1.27;;;0.70;;
57155;SDS011;43023;59.928;10.682;2023-03-14T10:48:21;0.70;;;0.57;;
57155;SDS011;43023;59.928;10.682;2023-03-14T10:53:49;2.33;;;0.45;;
57155;SDS011;43023;59.928;10.682;2023-03-14T10:56:19;0.45;;;0.45;;
57155;SDS011;43023;59.928;10.682;2023-03-14T10:58:46;0.82;;;0.35;;
57155;SDS011;43023;59.928;10.682;2023-03-14T11:04:00;0.63;;;0.38;;
57155;SDS011;43023;59.928;10.682;2023-03-14T11:06:37;0.75;;;0.32;;
57155;SDS011;43023;59.928;10.682;2023-03-14T11:09:17;0.70;;;0.47;;
57155;SDS011;43023;59.928;10.682;2023-03-14T11:11:46;0.40;;;0.40;;
57155;SDS011;43023;59.928;10.682;2023-03-14T11:14:22;0.57;;;0.38;;
57155;SDS011;43023;59.928;10.682;2023-03-14T11:16:59;1.20;;;0.50;;
57155;SDS011;43023;59.928;10.682;2023-03-14T11:21:55;0.52;;;0.52;;
57155;SDS011;43023;59.928;10.682;2023-03-14T11:26:53;0.80;;;0.40;;
57155;SDS011;43023;59.928;10.682;2023-03-14T11:31:47;0.95;;;0.60;;
57155;SDS011;43023;59.928;10.682;2023-03-14T11:36:51;0.80;;;0.30;;
57155;SDS011;43023;59.928;10.682;2023-03-14T11:39:18;0.57;;;0.40;;
57155;SDS011;43023;59.928;10.682;2023-03-14T11:41:51;0.60;;;0.60;;
57155;SDS011;43023;59.928;10.682;2023-03-14T11:44:19;0.40;;;0.40;;
57155;SDS011;43023;59.928;10.682;2023-03-14T11:46:56;0.63;;;0.40;;
57155;SDS011;43023;59.928;10.682;2023-03-14T11:49:28;2.03;;;0.20;;
57155;SDS011;43023;59.928;10.682;2023-03-14T11:51:57;0.35;;;0.30;;
57155;SDS011;43023;59.928;10.682;2023-03-14T11:54:36;0.45;;;0.30;;
57155;SDS011;43023;59.928;10.682;2023-03-14T11:57:25;0.30;;;0.30;;
57155;SDS011;43023;59.928;10.682;2023-03-14T12:02:25;0.40;;;0.30;;
57155;SDS011;43023;59.928;10.682;2023-03-14T12:07:21;0.38;;;0.30;;
57155;SDS011;43023;59.928;10.682;2023-03-14T12:09:49;0.82;;;0.32;;
57155;SDS011;43023;59.928;10.682;2023-03-14T12:12:18;1.38;;;0.30;;
57155;SDS011;43023;59.928;10.682;2023-03-14T12:14:46;0.30;;;0.08;;
57155;SDS011;43023;59.928;10.682;2023-03-14T12:20:04;0.80;;;0.30;;
57155;SDS011;43023;59.928;10.682;2023-03-14T12:22:35;0.57;;;0.30;;
57155;SDS011;43023;59.928;10.682;2023-03-14T12:33:37;0.30;;;0.10;;
57155;SDS011;43023;59.928;10.682;2023-03-14T12:35:45;0.17;;;0.17;;
57155;SDS011;43023;59.928;10.682;2023-03-14T12:43:32;0.40;;;0.40;;
57155;SDS011;43023;59.928;10.682;2023-03-14T12:48:44;1.33;;;0.35;;
57155;SDS011;43023;59.928;10.682;2023-03-14T12:51:14;0.30;;;0.17;;
57155;SDS011;43023;59.928;10.682;2023-03-14T12:53:49;1.80;;;0.30;;
57155;SDS011;43023;59.928;10.682;2023-03-14T12:59:13;0.10;;;0.10;;
57155;SDS011;43023;59.928;10.682;2023-03-14T13:01:54;0.20;;;0.20;;
57155;SDS011;43023;59.928;10.682;2023-03-14T13:04:26;0.20;;;0.20;;
57155;SDS011;43023;59.928;10.682;2023-03-14T13:12:15;0.17;;;0.17;;
57155;SDS011;43023;59.928;10.682;2023-03-14T13:14:43;0.40;;;0.20;;
57155;SDS011;43023;59.928;10.682;2023-03-14T13:17:13;0.35;;;0.30;;
57155;SDS011;43023;59.928;10.682;2023-03-14T13:19:40;0.10;;;0.10;;
57155;SDS011;43023;59.928;10.682;2023-03-14T13:22:21;0.47;;;0.30;;
57155;SDS011;43023;59.928;10.682;2023-03-14T13:24:47;0.40;;;0.10;;
57155;SDS011;43023;59.928;10.682;2023-03-14T13:27:17;0.93;;;0.30;;
57155;SDS011;43023;59.928;10.682;2023-03-14T13:29:49;0.17;;;0.10;;
57155;SDS011;43023;59.928;10.682;2023-03-14T13:32:17;0.30;;;0.22;;
57155;SDS011;43023;59.928;10.682;2023-03-14T13:34:43;0.52;;;0.20;;
57155;SDS011;43023;59.928;10.682;2023-03-14T13:37:16;0.47;;;0.10;;
57155;SDS011;43023;59.928;10.682;2023-03-14T13:39:42;0.20;;;0.20;;
57155;SDS011;43023;59.928;10.682;2023-03-14T13:42:13;0.17;;;0.13;;
57155;SDS011;43023;59.928;10.682;2023-03-14T13:44:40;0.63;;;0.15;;
57155;SDS011;43023;59.928;10.682;2023-03-14T13:47:16;0.20;;;0.20;;
57155;SDS011;43023;59.928;10.682;2023-03-14T13:49:43;0.75;;;0.38;;
57155;SDS011;43023;59.928;10.682;2023-03-14T13:54:47;0.10;;;0.10;;
57155;SDS011;43023;59.928;10.682;2023-03-14T13:57:13;0.30;;;0.10;;
57155;SDS011;43023;59.928;10.682;2023-03-14T13:59:39;0.00;;;0.00;;
57155;SDS011;43023;59.928;10.682;2023-03-14T14:02:14;0.15;;;0.15;;
57155;SDS011;43023;59.928;10.682;2023-03-14T14:04:40;0.30;;;0.10;;
57155;SDS011;43023;59.928;10.682;2023-03-14T14:07:08;0.00;;;0.00;;
57155;SDS011;43023;59.928;10.682;2023-03-14T14:09:41;0.10;;;0.08;;
57155;SDS011;43023;59.928;10.682;2023-03-14T14:14:39;0.13;;;0.13;;
57155;SDS011;43023;59.928;10.682;2023-03-14T14:17:08;0.30;;;0.10;;
57155;SDS011;43023;59.928;10.682;2023-03-14T14:19:35;0.90;;;0.25;;
57155;SDS011;43023;59.928;10.682;2023-03-14T14:22:02;0.30;;;0.20;;
57155;SDS011;43023;59.928;10.682;2023-03-14T14:24:29;0.25;;;0.10;;
57155;SDS011;43023;59.928;10.682;2023-03-14T14:27:12;0.20;;;0.20;;
57155;SDS011;43023;59.928;10.682;2023-03-14T14:29:39;0.10;;;0.10;;
57155;SDS011;43023;59.928;10.682;2023-03-14T14:34:39;0.00;;;0.00;;
57155;SDS011;43023;59.928;10.682;2023-03-14T14:37:14;0.63;;;0.10;;
57155;SDS011;43023;59.928;10.682;2023-03-14T14:39:43;0.10;;;0.10;;
57155;SDS011;43023;59.928;10.682;2023-03-14T14:42:15;0.10;;;0.10;;
57155;SDS011;43023;59.928;10.682;2023-03-14T14:44:42;0.37;;;0.10;;
57155;SDS011;43023;59.928;10.682;2023-03-14T14:47:12;0.10;;;0.10;;
57155;SDS011;43023;59.928;10.682;2023-03-14T14:49:39;1.15;;;0.30;;
57155;SDS011;43023;59.928;10.682;2023-03-14T14:52:47;0.10;;;0.10;;
57155;SDS011;43023;59.928;10.682;2023-03-14T14:54:58;2.08;;;0.10;;
57155;SDS011;43023;59.928;10.682;2023-03-14T14:57:28;0.20;;;0.20;;
57155;SDS011;43023;59.928;10.682;2023-03-14T14:59:56;1.48;;;0.10;;
57155;SDS011;43023;59.928;10.682;2023-03-14T15:02:44;3.00;;;0.10;;
57155;SDS011;43023;59.928;10.682;2023-03-14T15:05:18;0.32;;;0.20;;
57155;SDS011;43023;59.928;10.682;2023-03-14T15:07:44;0.20;;;0.20;;
57155;SDS011;43023;59.928;10.682;2023-03-14T15:10:12;1.33;;;0.20;;
57155;SDS011;43023;59.928;10.682;2023-03-14T15:12:38;0.22;;;0.20;;
57155;SDS011;43023;59.928;10.682;2023-03-14T15:15:05;4.47;;;0.20;;
57155;SDS011;43023;59.928;10.682;2023-03-14T15:17:31;0.00;;;0.00;;
57155;SDS011;43023;59.928;10.682;2023-03-14T15:19:57;0.10;;;0.10;;
57155;SDS011;43023;59.928;10.682;2023-03-14T15:22:24;0.10;;;0.10;;
57155;SDS011;43023;59.928;10.682;2023-03-14T15:24:50;0.90;;;0.17;;
57155;SDS011;43023;59.928;10.682;2023-03-14T15:27:17;2.40;;;0.13;;
57155;SDS011;43023;59.928;10.682;2023-03-14T15:29:43;1.58;;;0.10;;
57155;SDS011;43023;59.928;10.682;2023-03-14T15:32:10;0.15;;;0.10;;
57155;SDS011;43023;59.928;10.682;2023-03-14T15:34:37;0.13;;;0.00;;
57155;SDS011;43023;59.928;10.682;2023-03-14T15:37:03;0.20;;;0.20;;
57155;SDS011;43023;59.928;10.682;2023-03-14T15:39:34;1.35;;;0.10;;
57155;SDS011;43023;59.928;10.682;2023-03-14T15:42:01;0.63;;;0.30;;
57155;SDS011;43023;59.928;10.682;2023-03-14T15:44:27;0.20;;;0.20;;